sensor_id;sensor_type;location;lat;lon;timestamp;P1;durP1;ratioP1;P2;durP2;ratioP2
55756;SDS011;41676;44.610;44.078;2023-05-20T00:03:07;6.75;;;3.67;;
55756;SDS011;41676;44.610;44.078;2023-05-20T00:08:08;7.20;;;4.10;;
55756;SDS011;41676;44.610;44.078;2023-05-20T00:13:10;4.82;;;3.47;;
55756;SDS011;41676;44.610;44.078;2023-05-20T00:18:10;7.88;;;3.70;;
55756;SDS011;41676;44.610;44.078;2023-05-20T00:23:11;15.98;;;4.03;;
55756;SDS011;41676;44.610;44.078;2023-05-20T00:28:12;7.95;;;3.10;;
55756;SDS011;41676;44.610;44.078;2023-05-20T00:33:13;6.85;;;3.65;;
55756;SDS011;41676;44.610;44.078;2023-05-20T00:38:14;8.05;;;3.88;;
55756;SDS011;41676;44.610;44.078;2023-05-20T00:43:14;9.95;;;3.80;;
55756;SDS011;41676;44.610;44.078;2023-05-20T00:48:15;6.35;;;4.15;;
55756;SDS011;41676;44.610;44.078;2023-05-20T00:53:16;6.45;;;4.45;;
55756;SDS011;41676;44.610;44.078;2023-05-20T01:03:21;15.10;;;4.47;;
55756;SDS011;41676;44.610;44.078;2023-05-20T01:08:22;40.58;;;6.43;;
55756;SDS011;41676;44.610;44.078;2023-05-20T01:13:26;18.20;;;4.97;;
55756;SDS011;41676;44.610;44.078;2023-05-20T01:18:33;8.68;;;4.18;;
55756;SDS011;41676;44.610;44.078;2023-05-20T01:23:38;11.73;;;4.50;;
55756;SDS011;41676;44.610;44.078;2023-05-20T01:28:40;12.07;;;3.97;;
55756;SDS011;41676;44.610;44.078;2023-05-20T01:33:44;8.05;;;4.28;;
55756;SDS011;41676;44.610;44.078;2023-05-20T01:38:50;7.63;;;4.50;;
55756;SDS011;41676;44.610;44.078;2023-05-20T01:43:53;9.68;;;4.35;;
55756;SDS011;41676;44.610;44.078;2023-05-20T01:48:55;33.75;;;6.18;;
55756;SDS011;41676;44.610;44.078;2023-05-20T01:53:56;6.53;;;4.43;;
55756;SDS011;41676;44.610;44.078;2023-05-20T01:58:56;16.88;;;4.78;;
55756;SDS011;41676;44.610;44.078;2023-05-20T02:03:57;8.20;;;4.50;;
55756;SDS011;41676;44.610;44.078;2023-05-20T02:08:58;14.32;;;4.28;;
55756;SDS011;41676;44.610;44.078;2023-05-20T02:13:59;23.92;;;4.97;;
55756;SDS011;41676;44.610;44.078;2023-05-20T02:19:00;8.52;;;3.97;;
55756;SDS011;41676;44.610;44.078;2023-05-20T02:24:01;54.40;;;5.75;;
55756;SDS011;41676;44.610;44.078;2023-05-20T02:29:01;14.00;;;4.25;;
55756;SDS011;41676;44.610;44.078;2023-05-20T02:34:02;7.90;;;3.40;;
55756;SDS011;41676;44.610;44.078;2023-05-20T02:39:03;9.23;;;3.97;;
55756;SDS011;41676;44.610;44.078;2023-05-20T02:44:04;5.88;;;3.13;;
55756;SDS011;41676;44.610;44.078;2023-05-20T02:49:05;13.02;;;3.58;;
55756;SDS011;41676;44.610;44.078;2023-05-20T02:54:06;8.77;;;3.42;;
55756;SDS011;41676;44.610;44.078;2023-05-20T02:59:07;8.35;;;3.13;;
55756;SDS011;41676;44.610;44.078;2023-05-20T03:04:08;6.90;;;2.80;;
55756;SDS011;41676;44.610;44.078;2023-05-20T03:09:08;6.25;;;3.03;;
55756;SDS011;41676;44.610;44.078;2023-05-20T03:14:09;5.03;;;3.28;;
55756;SDS011;41676;44.610;44.078;2023-05-20T03:19:10;5.05;;;2.97;;
55756;SDS011;41676;44.610;44.078;2023-05-20T03:24:11;6.47;;;3.08;;
55756;SDS011;41676;44.610;44.078;2023-05-20T03:29:12;4.57;;;2.85;;
55756;SDS011;41676;44.610;44.078;2023-05-20T03:34:12;9.35;;;3.70;;
55756;SDS011;41676;44.610;44.078;2023-05-20T03:39:13;12.27;;;3.33;;
55756;SDS011;41676;44.610;44.078;2023-05-20T03:44:14;9.20;;;3.50;;
55756;SDS011;41676;44.610;44.078;2023-05-20T03:49:15;12.40;;;3.33;;
55756;SDS011;41676;44.610;44.078;2023-05-20T03:54:15;8.23;;;3.80;;
55756;SDS011;41676;44.610;44.078;2023-05-20T03:59:17;8.73;;;3.90;;
55756;SDS011;41676;44.610;44.078;2023-05-20T04:04:18;10.90;;;4.38;;
55756;SDS011;41676;44.610;44.078;2023-05-20T04:09:19;14.50;;;4.38;;
55756;SDS011;41676;44.610;44.078;2023-05-20T04:14:20;11.70;;;4.68;;
55756;SDS011;41676;44.610;44.078;2023-05-20T04:19:20;9.75;;;4.25;;
55756;SDS011;41676;44.610;44.078;2023-05-20T04:24:24;8.35;;;4.70;;
55756;SDS011;41676;44.610;44.078;2023-05-20T04:29:26;12.88;;;4.55;;
55756;SDS011;41676;44.610;44.078;2023-05-20T04:34:30;11.95;;;4.63;;
55756;SDS011;41676;44.610;44.078;2023-05-20T04:39:34;12.80;;;4.68;;
55756;SDS011;41676;44.610;44.078;2023-05-20T04:44:35;9.15;;;4.78;;
55756;SDS011;41676;44.610;44.078;2023-05-20T04:49:37;8.65;;;4.57;;
55756;SDS011;41676;44.610;44.078;2023-05-20T04:54:38;14.13;;;4.57;;
55756;SDS011;41676;44.610;44.078;2023-05-20T04:59:39;14.18;;;4.97;;
55756;SDS011;41676;44.610;44.078;2023-05-20T05:04:40;11.07;;;4.75;;
55756;SDS011;41676;44.610;44.078;2023-05-20T05:09:41;7.18;;;4.60;;
55756;SDS011;41676;44.610;44.078;2023-05-20T05:14:41;7.93;;;4.40;;
55756;SDS011;41676;44.610;44.078;2023-05-20T05:19:42;14.15;;;4.10;;
55756;SDS011;41676;44.610;44.078;2023-05-20T05:24:43;7.03;;;3.90;;
55756;SDS011;41676;44.610;44.078;2023-05-20T05:29:44;10.10;;;3.80;;
55756;SDS011;41676;44.610;44.078;2023-05-20T05:34:44;8.32;;;3.95;;
55756;SDS011;41676;44.610;44.078;2023-05-20T05:39:45;7.13;;;3.75;;
55756;SDS011;41676;44.610;44.078;2023-05-20T05:44:47;13.40;;;4.07;;
55756;SDS011;41676;44.610;44.078;2023-05-20T05:49:48;6.07;;;3.45;;
55756;SDS011;41676;44.610;44.078;2023-05-20T05:54:49;7.70;;;3.70;;
55756;SDS011;41676;44.610;44.078;2023-05-20T05:59:49;6.70;;;3.00;;
55756;SDS011;41676;44.610;44.078;2023-05-20T06:04:50;12.68;;;2.90;;
55756;SDS011;41676;44.610;44.078;2023-05-20T06:09:51;9.95;;;3.58;;
55756;SDS011;41676;44.610;44.078;2023-05-20T06:14:52;5.32;;;3.30;;
55756;SDS011;41676;44.610;44.078;2023-05-20T06:19:53;5.78;;;2.58;;
55756;SDS011;41676;44.610;44.078;2023-05-20T06:24:54;5.53;;;3.28;;
55756;SDS011;41676;44.610;44.078;2023-05-20T06:29:59;7.95;;;3.10;;
55756;SDS011;41676;44.610;44.078;2023-05-20T06:35:00;7.07;;;2.83;;
55756;SDS011;41676;44.610;44.078;2023-05-20T06:40:03;10.00;;;2.90;;
55756;SDS011;41676;44.610;44.078;2023-05-20T06:45:04;4.00;;;2.70;;
55756;SDS011;41676;44.610;44.078;2023-05-20T06:50:05;8.70;;;2.80;;
55756;SDS011;41676;44.610;44.078;2023-05-20T06:55:06;4.93;;;2.63;;
55756;SDS011;41676;44.610;44.078;2023-05-20T07:00:08;11.00;;;3.10;;
55756;SDS011;41676;44.610;44.078;2023-05-20T07:05:09;11.32;;;3.53;;
55756;SDS011;41676;44.610;44.078;2023-05-20T07:10:10;7.30;;;2.45;;
55756;SDS011;41676;44.610;44.078;2023-05-20T07:15:10;7.57;;;2.97;;
55756;SDS011;41676;44.610;44.078;2023-05-20T07:20:11;5.38;;;2.95;;
55756;SDS011;41676;44.610;44.078;2023-05-20T07:25:12;7.85;;;3.10;;
55756;SDS011;41676;44.610;44.078;2023-05-20T07:30:13;19.60;;;4.03;;
55756;SDS011;41676;44.610;44.078;2023-05-20T07:35:14;15.40;;;6.53;;
55756;SDS011;41676;44.610;44.078;2023-05-20T07:40:15;6.57;;;4.25;;
55756;SDS011;41676;44.610;44.078;2023-05-20T07:45:16;9.10;;;2.92;;
55756;SDS011;41676;44.610;44.078;2023-05-20T07:50:17;9.00;;;3.92;;
55756;SDS011;41676;44.610;44.078;2023-05-20T07:55:17;7.50;;;2.63;;
55756;SDS011;41676;44.610;44.078;2023-05-20T08:00:18;9.48;;;2.85;;
55756;SDS011;41676;44.610;44.078;2023-05-20T08:05:20;14.23;;;3.40;;
55756;SDS011;41676;44.610;44.078;2023-05-20T08:10:22;5.60;;;2.70;;
55756;SDS011;41676;44.610;44.078;2023-05-20T08:15:22;5.63;;;2.83;;
55756;SDS011;41676;44.610;44.078;2023-05-20T08:20:23;17.60;;;3.55;;
55756;SDS011;41676;44.610;44.078;2023-05-20T08:25:25;14.45;;;3.40;;
55756;SDS011;41676;44.610;44.078;2023-05-20T08:30:26;7.20;;;2.75;;
55756;SDS011;41676;44.610;44.078;2023-05-20T08:35:27;6.05;;;2.90;;
55756;SDS011;41676;44.610;44.078;2023-05-20T08:40:28;6.47;;;2.38;;
55756;SDS011;41676;44.610;44.078;2023-05-20T08:45:30;11.80;;;2.15;;
55756;SDS011;41676;44.610;44.078;2023-05-20T08:50:32;6.53;;;1.80;;
55756;SDS011;41676;44.610;44.078;2023-05-20T08:55:41;4.85;;;2.15;;
55756;SDS011;41676;44.610;44.078;2023-05-20T09:00:45;5.97;;;2.00;;
55756;SDS011;41676;44.610;44.078;2023-05-20T09:05:46;5.72;;;2.05;;
55756;SDS011;41676;44.610;44.078;2023-05-20T09:10:47;4.10;;;1.83;;
55756;SDS011;41676;44.610;44.078;2023-05-20T09:15:51;9.07;;;2.35;;
55756;SDS011;41676;44.610;44.078;2023-05-20T09:20:52;7.55;;;2.20;;
55756;SDS011;41676;44.610;44.078;2023-05-20T09:25:53;5.65;;;2.55;;
55756;SDS011;41676;44.610;44.078;2023-05-20T09:31:00;11.63;;;2.28;;
55756;SDS011;41676;44.610;44.078;2023-05-20T09:36:04;15.05;;;2.30;;
55756;SDS011;41676;44.610;44.078;2023-05-20T09:41:10;8.77;;;2.40;;
55756;SDS011;41676;44.610;44.078;2023-05-20T09:46:13;7.15;;;2.60;;
55756;SDS011;41676;44.610;44.078;2023-05-20T09:51:15;10.63;;;2.60;;
55756;SDS011;41676;44.610;44.078;2023-05-20T09:56:17;6.65;;;2.42;;
55756;SDS011;41676;44.610;44.078;2023-05-20T10:01:21;8.98;;;2.30;;
55756;SDS011;41676;44.610;44.078;2023-05-20T10:17:29;13.05;;;3.03;;
55756;SDS011;41676;44.610;44.078;2023-05-20T10:22:29;12.55;;;2.35;;
55756;SDS011;41676;44.610;44.078;2023-05-20T10:27:44;14.52;;;2.75;;
55756;SDS011;41676;44.610;44.078;2023-05-20T10:32:52;13.23;;;2.33;;
55756;SDS011;41676;44.610;44.078;2023-05-20T10:38:06;12.32;;;3.25;;
55756;SDS011;41676;44.610;44.078;2023-05-20T10:43:11;23.23;;;2.70;;
55756;SDS011;41676;44.610;44.078;2023-05-20T10:48:23;9.25;;;2.78;;
55756;SDS011;41676;44.610;44.078;2023-05-20T10:53:25;26.33;;;3.47;;
55756;SDS011;41676;44.610;44.078;2023-05-20T10:58:26;8.70;;;3.05;;
55756;SDS011;41676;44.610;44.078;2023-05-20T11:03:27;12.70;;;4.40;;
55756;SDS011;41676;44.610;44.078;2023-05-20T11:08:29;11.43;;;3.55;;
55756;SDS011;41676;44.610;44.078;2023-05-20T11:13:33;12.65;;;2.70;;
55756;SDS011;41676;44.610;44.078;2023-05-20T11:18:34;13.77;;;2.88;;
55756;SDS011;41676;44.610;44.078;2023-05-20T11:23:35;8.40;;;2.75;;
55756;SDS011;41676;44.610;44.078;2023-05-20T11:28:36;13.02;;;2.97;;
55756;SDS011;41676;44.610;44.078;2023-05-20T11:33:40;15.02;;;2.88;;
55756;SDS011;41676;44.610;44.078;2023-05-20T11:38:44;11.63;;;3.17;;
55756;SDS011;41676;44.610;44.078;2023-05-20T11:43:46;18.60;;;3.65;;
55756;SDS011;41676;44.610;44.078;2023-05-20T11:48:56;27.38;;;3.80;;
55756;SDS011;41676;44.610;44.078;2023-05-20T11:54:00;9.35;;;3.10;;
55756;SDS011;41676;44.610;44.078;2023-05-20T11:59:03;18.65;;;2.90;;
55756;SDS011;41676;44.610;44.078;2023-05-20T12:04:04;31.57;;;3.40;;
55756;SDS011;41676;44.610;44.078;2023-05-20T12:09:06;8.90;;;2.85;;
55756;SDS011;41676;44.610;44.078;2023-05-20T12:14:07;14.13;;;3.15;;
55756;SDS011;41676;44.610;44.078;2023-05-20T12:19:08;11.07;;;3.30;;
55756;SDS011;41676;44.610;44.078;2023-05-20T12:24:09;9.32;;;2.58;;
55756;SDS011;41676;44.610;44.078;2023-05-20T12:29:10;14.60;;;3.17;;
55756;SDS011;41676;44.610;44.078;2023-05-20T12:34:11;30.45;;;2.95;;
55756;SDS011;41676;44.610;44.078;2023-05-20T12:39:12;11.98;;;3.15;;
55756;SDS011;41676;44.610;44.078;2023-05-20T12:44:16;18.08;;;3.03;;
55756;SDS011;41676;44.610;44.078;2023-05-20T12:49:17;12.05;;;2.70;;
55756;SDS011;41676;44.610;44.078;2023-05-20T12:54:18;14.10;;;3.38;;
55756;SDS011;41676;44.610;44.078;2023-05-20T12:59:20;6.57;;;2.67;;
55756;SDS011;41676;44.610;44.078;2023-05-20T13:04:20;13.40;;;3.47;;
55756;SDS011;41676;44.610;44.078;2023-05-20T13:09:21;32.45;;;3.45;;
55756;SDS011;41676;44.610;44.078;2023-05-20T13:14:22;9.60;;;2.45;;
55756;SDS011;41676;44.610;44.078;2023-05-20T13:19:23;9.60;;;2.35;;
55756;SDS011;41676;44.610;44.078;2023-05-20T13:24:24;9.02;;;3.35;;
55756;SDS011;41676;44.610;44.078;2023-05-20T13:29:25;12.90;;;3.30;;
55756;SDS011;41676;44.610;44.078;2023-05-20T13:34:26;11.43;;;2.78;;
55756;SDS011;41676;44.610;44.078;2023-05-20T13:39:27;18.77;;;5.10;;
55756;SDS011;41676;44.610;44.078;2023-05-20T13:44:28;15.15;;;3.15;;
55756;SDS011;41676;44.610;44.078;2023-05-20T13:49:29;14.93;;;4.20;;
55756;SDS011;41676;44.610;44.078;2023-05-20T13:54:30;16.92;;;3.05;;
55756;SDS011;41676;44.610;44.078;2023-05-20T13:59:31;9.32;;;2.40;;
55756;SDS011;41676;44.610;44.078;2023-05-20T14:04:31;16.98;;;3.53;;
55756;SDS011;41676;44.610;44.078;2023-05-20T14:09:38;9.48;;;3.08;;
55756;SDS011;41676;44.610;44.078;2023-05-20T14:14:39;8.43;;;2.75;;
55756;SDS011;41676;44.610;44.078;2023-05-20T14:19:40;15.75;;;2.78;;
55756;SDS011;41676;44.610;44.078;2023-05-20T14:24:40;20.98;;;3.42;;
55756;SDS011;41676;44.610;44.078;2023-05-20T14:29:41;14.27;;;2.80;;
55756;SDS011;41676;44.610;44.078;2023-05-20T14:34:42;11.40;;;2.83;;
55756;SDS011;41676;44.610;44.078;2023-05-20T14:39:43;9.75;;;2.70;;
55756;SDS011;41676;44.610;44.078;2023-05-20T14:44:43;24.30;;;2.78;;
55756;SDS011;41676;44.610;44.078;2023-05-20T14:49:44;9.88;;;2.88;;
55756;SDS011;41676;44.610;44.078;2023-05-20T14:54:45;8.73;;;3.05;;
55756;SDS011;41676;44.610;44.078;2023-05-20T14:59:46;10.07;;;2.53;;
55756;SDS011;41676;44.610;44.078;2023-05-20T15:09:50;11.07;;;2.85;;
55756;SDS011;41676;44.610;44.078;2023-05-20T15:14:51;36.58;;;3.63;;
55756;SDS011;41676;44.610;44.078;2023-05-20T15:19:52;7.85;;;2.58;;
55756;SDS011;41676;44.610;44.078;2023-05-20T15:24:53;20.48;;;2.70;;
55756;SDS011;41676;44.610;44.078;2023-05-20T15:29:53;10.00;;;2.72;;
55756;SDS011;41676;44.610;44.078;2023-05-20T15:34:54;8.52;;;3.38;;
55756;SDS011;41676;44.610;44.078;2023-05-20T15:39:55;8.23;;;2.75;;
55756;SDS011;41676;44.610;44.078;2023-05-20T15:44:56;9.35;;;3.80;;
55756;SDS011;41676;44.610;44.078;2023-05-20T15:49:56;12.05;;;2.80;;
55756;SDS011;41676;44.610;44.078;2023-05-20T15:54:57;11.00;;;4.07;;
55756;SDS011;41676;44.610;44.078;2023-05-20T15:59:58;15.50;;;6.40;;
55756;SDS011;41676;44.610;44.078;2023-05-20T16:04:59;18.75;;;10.13;;
55756;SDS011;41676;44.610;44.078;2023-05-20T16:10:00;18.15;;;5.35;;
55756;SDS011;41676;44.610;44.078;2023-05-20T16:15:01;8.73;;;4.68;;
55756;SDS011;41676;44.610;44.078;2023-05-20T16:20:02;10.80;;;4.30;;
55756;SDS011;41676;44.610;44.078;2023-05-20T16:25:06;17.45;;;2.83;;
55756;SDS011;41676;44.610;44.078;2023-05-20T16:30:07;10.93;;;2.65;;
55756;SDS011;41676;44.610;44.078;2023-05-20T16:35:09;8.50;;;2.58;;
55756;SDS011;41676;44.610;44.078;2023-05-20T16:40:10;9.32;;;2.75;;
55756;SDS011;41676;44.610;44.078;2023-05-20T16:45:11;10.35;;;2.50;;
55756;SDS011;41676;44.610;44.078;2023-05-20T16:50:12;9.32;;;2.35;;
55756;SDS011;41676;44.610;44.078;2023-05-20T16:55:13;12.32;;;2.53;;
55756;SDS011;41676;44.610;44.078;2023-05-20T17:00:14;7.75;;;2.40;;
55756;SDS011;41676;44.610;44.078;2023-05-20T17:05:15;6.20;;;1.90;;
55756;SDS011;41676;44.610;44.078;2023-05-20T17:10:16;5.95;;;2.08;;
55756;SDS011;41676;44.610;44.078;2023-05-20T17:15:17;8.00;;;2.30;;
55756;SDS011;41676;44.610;44.078;2023-05-20T17:20:18;9.70;;;2.00;;
55756;SDS011;41676;44.610;44.078;2023-05-20T17:25:19;9.05;;;2.13;;
55756;SDS011;41676;44.610;44.078;2023-05-20T17:30:20;6.63;;;2.42;;
55756;SDS011;41676;44.610;44.078;2023-05-20T17:35:20;5.65;;;2.55;;
55756;SDS011;41676;44.610;44.078;2023-05-20T17:40:24;6.95;;;3.22;;
55756;SDS011;41676;44.610;44.078;2023-05-20T17:45:25;16.83;;;10.93;;
55756;SDS011;41676;44.610;44.078;2023-05-20T17:50:26;16.25;;;9.73;;
55756;SDS011;41676;44.610;44.078;2023-05-20T17:55:27;11.52;;;4.88;;
55756;SDS011;41676;44.610;44.078;2023-05-20T18:00:32;7.00;;;3.10;;
55756;SDS011;41676;44.610;44.078;2023-05-20T18:05:41;10.48;;;3.53;;
55756;SDS011;41676;44.610;44.078;2023-05-20T18:10:41;10.20;;;2.78;;
55756;SDS011;41676;44.610;44.078;2023-05-20T18:15:42;9.10;;;2.75;;
55756;SDS011;41676;44.610;44.078;2023-05-20T18:20:43;13.32;;;2.20;;
55756;SDS011;41676;44.610;44.078;2023-05-20T18:25:44;5.32;;;1.90;;
55756;SDS011;41676;44.610;44.078;2023-05-20T18:30:45;10.95;;;2.10;;
55756;SDS011;41676;44.610;44.078;2023-05-20T18:35:46;9.25;;;2.40;;
55756;SDS011;41676;44.610;44.078;2023-05-20T18:40:46;7.40;;;2.25;;
55756;SDS011;41676;44.610;44.078;2023-05-20T18:45:47;5.55;;;1.98;;
55756;SDS011;41676;44.610;44.078;2023-05-20T18:50:48;12.60;;;2.15;;
55756;SDS011;41676;44.610;44.078;2023-05-20T18:55:49;8.98;;;2.47;;
55756;SDS011;41676;44.610;44.078;2023-05-20T19:00:50;8.45;;;2.10;;
55756;SDS011;41676;44.610;44.078;2023-05-20T19:05:51;7.28;;;2.10;;
55756;SDS011;41676;44.610;44.078;2023-05-20T19:10:51;4.45;;;1.83;;
55756;SDS011;41676;44.610;44.078;2023-05-20T19:15:52;7.20;;;2.25;;
55756;SDS011;41676;44.610;44.078;2023-05-20T19:20:53;4.18;;;1.92;;
55756;SDS011;41676;44.610;44.078;2023-05-20T19:25:54;2.83;;;1.63;;
55756;SDS011;41676;44.610;44.078;2023-05-20T19:30:55;5.43;;;2.00;;
55756;SDS011;41676;44.610;44.078;2023-05-20T19:35:56;6.18;;;2.20;;
55756;SDS011;41676;44.610;44.078;2023-05-20T19:40:57;8.30;;;2.08;;
55756;SDS011;41676;44.610;44.078;2023-05-20T19:45:58;9.40;;;2.30;;
55756;SDS011;41676;44.610;44.078;2023-05-20T19:50:59;6.38;;;2.30;;
55756;SDS011;41676;44.610;44.078;2023-05-20T19:56:01;7.15;;;2.20;;
55756;SDS011;41676;44.610;44.078;2023-05-20T20:01:02;8.35;;;2.10;;
55756;SDS011;41676;44.610;44.078;2023-05-20T20:06:05;4.88;;;2.10;;
55756;SDS011;41676;44.610;44.078;2023-05-20T20:11:07;8.98;;;2.00;;
55756;SDS011;41676;44.610;44.078;2023-05-20T20:16:08;6.15;;;2.33;;
55756;SDS011;41676;44.610;44.078;2023-05-20T20:21:09;7.65;;;1.95;;
55756;SDS011;41676;44.610;44.078;2023-05-20T20:26:10;6.95;;;2.35;;
55756;SDS011;41676;44.610;44.078;2023-05-20T20:31:12;9.25;;;2.28;;
55756;SDS011;41676;44.610;44.078;2023-05-20T20:36:13;7.93;;;2.10;;
55756;SDS011;41676;44.610;44.078;2023-05-20T20:41:14;3.42;;;1.80;;
55756;SDS011;41676;44.610;44.078;2023-05-20T20:46:15;7.07;;;1.90;;
55756;SDS011;41676;44.610;44.078;2023-05-20T20:51:16;5.03;;;1.95;;
55756;SDS011;41676;44.610;44.078;2023-05-20T20:56:17;9.80;;;1.75;;
55756;SDS011;41676;44.610;44.078;2023-05-20T21:01:18;8.18;;;2.22;;
55756;SDS011;41676;44.610;44.078;2023-05-20T21:06:19;6.95;;;2.10;;
55756;SDS011;41676;44.610;44.078;2023-05-20T21:11:20;13.15;;;2.47;;
55756;SDS011;41676;44.610;44.078;2023-05-20T21:16:21;8.98;;;2.00;;
55756;SDS011;41676;44.610;44.078;2023-05-20T21:21:22;6.72;;;2.20;;
55756;SDS011;41676;44.610;44.078;2023-05-20T21:26:23;5.13;;;2.00;;
55756;SDS011;41676;44.610;44.078;2023-05-20T21:31:24;10.93;;;2.53;;
55756;SDS011;41676;44.610;44.078;2023-05-20T21:36:25;7.63;;;1.92;;
55756;SDS011;41676;44.610;44.078;2023-05-20T21:41:26;6.47;;;2.00;;
55756;SDS011;41676;44.610;44.078;2023-05-20T21:46:27;7.65;;;2.30;;
55756;SDS011;41676;44.610;44.078;2023-05-20T21:51:27;8.63;;;2.22;;
55756;SDS011;41676;44.610;44.078;2023-05-20T21:56:28;6.05;;;2.20;;
55756;SDS011;41676;44.610;44.078;2023-05-20T22:01:29;7.80;;;1.95;;
55756;SDS011;41676;44.610;44.078;2023-05-20T22:06:30;6.95;;;1.85;;
55756;SDS011;41676;44.610;44.078;2023-05-20T22:11:35;5.22;;;2.22;;
55756;SDS011;41676;44.610;44.078;2023-05-20T22:16:36;5.47;;;2.13;;
55756;SDS011;41676;44.610;44.078;2023-05-20T22:21:38;5.45;;;2.20;;
55756;SDS011;41676;44.610;44.078;2023-05-20T22:26:39;4.03;;;1.75;;
55756;SDS011;41676;44.610;44.078;2023-05-20T22:31:40;5.25;;;2.00;;
55756;SDS011;41676;44.610;44.078;2023-05-20T22:36:40;5.35;;;2.20;;
55756;SDS011;41676;44.610;44.078;2023-05-20T22:41:41;3.25;;;1.90;;
55756;SDS011;41676;44.610;44.078;2023-05-20T22:46:42;9.10;;;2.42;;
55756;SDS011;41676;44.610;44.078;2023-05-20T22:51:43;5.50;;;2.20;;
55756;SDS011;41676;44.610;44.078;2023-05-20T22:56:44;8.07;;;2.30;;
55756;SDS011;41676;44.610;44.078;2023-05-20T23:01:44;5.90;;;2.00;;
55756;SDS011;41676;44.610;44.078;2023-05-20T23:06:45;6.50;;;2.05;;
55756;SDS011;41676;44.610;44.078;2023-05-20T23:11:46;3.33;;;1.98;;
55756;SDS011;41676;44.610;44.078;2023-05-20T23:16:47;8.60;;;2.83;;
55756;SDS011;41676;44.610;44.078;2023-05-20T23:21:48;14.30;;;2.58;;
55756;SDS011;41676;44.610;44.078;2023-05-20T23:26:48;7.57;;;2.88;;
55756;SDS011;41676;44.610;44.078;2023-05-20T23:31:50;5.72;;;2.17;;
55756;SDS011;41676;44.610;44.078;2023-05-20T23:36:51;6.60;;;2.03;;
55756;SDS011;41676;44.610;44.078;2023-05-20T23:41:52;6.75;;;2.10;;
55756;SDS011;41676;44.610;44.078;2023-05-20T23:46:53;3.03;;;1.73;;
55756;SDS011;41676;44.610;44.078;2023-05-20T23:51:54;5.40;;;2.33;;
55756;SDS011;41676;44.610;44.078;2023-05-20T23:56:55;6.15;;;2.38;;
